Aeroporto :
LOGIN :

Iscrizione | Disclaimer

   EN    FR    IT 

 










Sommario :    VFR   VFR Marginale   IFR   IFR Intensivo   IFR Molto Intensivo
Visibilità : 
Base nubi : 
>= 8 km
>= 3000ft
5 / 8 km
1000 / 3000 ft
1500m / 5 km
500 / 1000 ft
800 / 1500m
200 / 500 ft
< 800m
< 200 ft
Simboli :   Temporali  Nebbia  Neve Forte  Precipitazioni Forti  Vento > 20 kt
SIGMETs :   Varie  Temporali  Ghiacco  Turbolenza  Onda orograficha  Ceneri Vulcaniche






- Altitudine del aeroporto : 49 ft
- Codice IATA : GLZ


EHGR - Gilze-Rijen Airbase

ULTIMO METAR :
  • 220425Z AUTO 14006KT 9000 BR FEW015CB BKN058 BKN064 05/04 Q1003 BLU

METARs OBSOLETI :
  • 220355Z AUTO 13006KT 9000 DZ FEW015CB BKN064 OVC069 05/04 Q1003 BLU
  • 220325Z AUTO 13006KT 8000 BR FEW015CB SCT054 BKN062 05/03 Q1003 BLU
  • 220255Z AUTO 14008KT 8000 BR FEW046 SCT050 BKN056 04/03 Q1004 BLU
  • 220242Z AUTO 14007KT 8000 BR FEW050 SCT056 OVC063 04/03 Q1003 BLU
  • 220225Z AUTO 13008KT 7000 BR BKN071 OVC078 04/03 Q1003 WHT

TAF TAF EHGR
Valido dal 21 a 18 ore il 22 a 06 ore UTC


211740Z 2118/2206 10005KT 4000 BR NSC
TEMPO 2119/2206 2500



MetMap, La meteo Aeronautica in un colpo d'occhio ! - Copyright ORBIFLY Dicembre 2007 - Disclaimer

ORBIFLY MET'MAP TEAM :

Programmazione e sviluppo : Alexandra Zaïnal
Concezione e sviluppo : Baudouin d'Aumeries
Co-Programmazione e sviluppo : Marc-Olivier Méhu
Supporto tecnico e logistico : Manuel Goepfert
Aiuto per la traduzione : Arnaldo La Scala

Contatto : metmap@orbifly.com




FONTI E CREDITI :

   NOAA